Time;durP1;ratioP1;P1;durP2;ratioP2;P2;SDS_P1;SDS_P2;PMS_P1;PMS_P2;Temp;Humidity;BMP_temperature;BMP_pressure;BME280_temperature;BME280_humidity;BME280_pressure;Samples;Min_cycle;Max_cycle;Signal;HPM_P1;HPM_P2
2023/06/17 00:01:05;;;;;;;16.20;15.10;;;17.20;99.90;;;;;;4917971;29;20825;-75
2023/06/17 00:03:32;;;;;;;15.93;14.87;;;17.20;99.90;;;;;;4917981;29;20529;-75
2023/06/17 00:05:58;;;;;;;16.33;15.33;;;17.20;99.90;;;;;;4917772;29;20465;-75
2023/06/17 00:08:25;;;;;;;15.83;14.73;;;17.20;99.90;;;;;;4917652;29;20462;-74
2023/06/17 00:10:53;;;;;;;16.83;15.43;;;17.20;99.90;;;;;;4917606;29;20494;-74
2023/06/17 00:13:21;;;;;;;15.77;14.67;;;17.20;99.90;;;;;;4917726;29;20537;-74
2023/06/17 00:15:50;;;;;;;15.17;14.07;;;17.20;99.90;;;;;;4917631;29;20457;-74
2023/06/17 00:18:19;;;;;;;15.90;15.00;;;17.20;99.90;;;;;;4917509;29;20552;-74
2023/06/17 00:20:46;;;;;;;16.47;15.37;;;17.10;99.90;;;;;;4917526;29;20486;-75
2023/06/17 00:23:13;;;;;;;16.67;15.47;;;17.10;99.90;;;;;;4917627;29;20458;-75
2023/06/17 00:25:39;;;;;;;15.60;14.60;;;17.10;99.90;;;;;;4917564;29;20480;-75
2023/06/17 00:28:07;;;;;;;15.60;14.63;;;17.10;99.90;;;;;;4917603;29;20513;-76
2023/06/17 00:30:34;;;;;;;15.97;14.97;;;17.10;99.90;;;;;;4917415;29;20497;-75
2023/06/17 00:33:01;;;;;;;17.27;15.93;;;17.10;99.90;;;;;;4917407;29;20939;-75
2023/06/17 00:35:27;;;;;;;16.67;15.57;;;17.20;99.90;;;;;;4917274;29;20943;-76
2023/06/17 00:37:54;;;;;;;15.80;14.73;;;17.20;99.90;;;;;;4917286;29;21118;-76
2023/06/17 00:40:21;;;;;;;16.87;15.87;;;17.10;99.90;;;;;;4917240;29;20462;-76
2023/06/17 00:42:47;;;;;;;16.30;15.10;;;17.10;99.90;;;;;;4917117;29;20454;-76
2023/06/17 00:45:15;;;;;;;16.00;15.00;;;17.00;99.90;;;;;;4917008;29;20461;-76
2023/06/17 00:47:42;;;;;;;15.93;15.03;;;16.90;99.90;;;;;;4917153;29;20458;-76
2023/06/17 00:50:12;;;;;;;15.73;14.73;;;16.90;99.90;;;;;;4932462;29;20449;-76
2023/06/17 00:52:40;;;;;;;17.13;15.90;;;16.80;99.90;;;;;;4935685;29;20493;-77
2023/06/17 00:55:08;;;;;;;17.70;16.20;;;16.90;99.90;;;;;;4934816;29;20457;-75
2023/06/17 00:57:37;;;;;;;16.77;15.47;;;16.90;99.90;;;;;;4935790;29;20550;-75
2023/06/17 01:00:10;;;;;;;17.43;16.20;;;16.80;99.90;;;;;;4935738;29;20457;-75
2023/06/17 01:02:40;;;;;;;17.57;16.43;;;16.80;99.90;;;;;;4935781;29;20795;-75
2023/06/17 01:05:11;;;;;;;16.70;15.40;;;16.80;99.90;;;;;;4935623;29;20462;-75
2023/06/17 01:07:50;;;;;;;17.13;15.83;;;16.70;99.90;;;;;;4935728;29;20461;-74
2023/06/17 01:10:22;;;;;;;19.27;17.80;;;16.70;99.90;;;;;;4935531;29;20453;-74
2023/06/17 01:12:50;;;;;;;18.20;16.80;;;16.60;99.90;;;;;;4935464;29;20453;-74
2023/06/17 01:15:18;;;;;;;17.03;15.80;;;16.60;99.90;;;;;;4935481;29;20881;-74
2023/06/17 01:17:47;;;;;;;17.73;16.43;;;16.60;99.90;;;;;;4935599;29;20457;-74
2023/06/17 01:20:15;;;;;;;15.43;14.43;;;16.50;99.90;;;;;;4935507;29;20457;-74
2023/06/17 01:22:44;;;;;;;15.93;14.97;;;16.50;99.90;;;;;;4935538;29;20450;-74
2023/06/17 01:25:13;;;;;;;16.10;15.17;;;16.40;99.90;;;;;;4935210;29;20471;-73
2023/06/17 01:27:41;;;;;;;15.37;14.17;;;16.30;99.90;;;;;;4935417;29;20867;-73
2023/06/17 01:30:09;;;;;;;15.30;14.50;;;16.40;99.90;;;;;;4935161;29;20492;-73
2023/06/17 01:32:36;;;;;;;16.77;15.17;;;16.30;99.90;;;;;;4935090;29;20548;-73
2023/06/17 01:35:07;;;;;;;17.20;15.73;;;16.30;99.90;;;;;;4935111;29;20998;-74
2023/06/17 01:37:41;;;;;;;18.27;16.87;;;16.30;99.90;;;;;;4935261;29;20465;-73
2023/06/17 01:40:13;;;;;;;19.10;17.20;;;16.30;99.90;;;;;;4934895;29;20457;-74
2023/06/17 01:42:45;;;;;;;16.57;15.03;;;16.30;99.90;;;;;;4935054;29;20458;-74
2023/06/17 01:45:13;;;;;;;18.07;16.73;;;16.20;99.90;;;;;;4934821;29;20449;-74
2023/06/17 01:47:40;;;;;;;16.93;15.73;;;16.20;99.90;;;;;;4934866;29;20465;-74
2023/06/17 01:50:07;;;;;;;17.30;16.00;;;16.10;99.90;;;;;;4934875;29;20453;-75
2023/06/17 01:52:34;;;;;;;17.57;16.27;;;16.10;99.90;;;;;;4934481;29;20499;-75
2023/06/17 01:55:02;;;;;;;18.70;17.30;;;16.10;99.90;;;;;;4934871;29;20972;-75
2023/06/17 01:57:30;;;;;;;17.40;16.13;;;16.00;99.90;;;;;;4934840;29;20944;-74
2023/06/17 01:59:58;;;;;;;17.30;16.20;;;16.00;99.90;;;;;;4934634;29;20536;-75
2023/06/17 02:02:25;;;;;;;17.30;16.00;;;16.00;99.90;;;;;;4934621;29;20513;-75
2023/06/17 02:04:51;;;;;;;16.70;15.60;;;16.00;99.90;;;;;;4934716;29;20461;-75
2023/06/17 02:07:18;;;;;;;19.27;17.77;;;15.90;99.90;;;;;;4934129;29;20464;-75
2023/06/17 02:09:46;;;;;;;17.23;16.23;;;15.90;99.90;;;;;;4934726;29;20457;-75
2023/06/17 02:12:14;;;;;;;17.90;16.20;;;15.90;99.90;;;;;;4934431;29;20493;-75
2023/06/17 02:14:42;;;;;;;17.30;16.20;;;15.80;99.90;;;;;;4934460;29;20825;-75
2023/06/17 02:17:10;;;;;;;16.27;15.27;;;15.70;99.90;;;;;;4934418;29;20469;-76
2023/06/17 02:19:37;;;;;;;17.33;16.17;;;15.70;99.90;;;;;;4934318;29;20461;-75
2023/06/17 02:22:05;;;;;;;19.93;18.37;;;15.70;99.90;;;;;;4934324;29;20458;-74
2023/06/17 02:24:31;;;;;;;18.03;16.53;;;15.70;99.90;;;;;;4934198;29;20505;-76
2023/06/17 02:26:59;;;;;;;17.90;16.77;;;15.70;99.90;;;;;;4934362;29;20462;-75
2023/06/17 02:29:26;;;;;;;19.13;17.83;;;15.70;99.90;;;;;;4934049;29;20469;-75
2023/06/17 02:31:54;;;;;;;19.83;17.90;;;15.60;99.90;;;;;;4934032;29;20511;-75
2023/06/17 02:34:20;;;;;;;17.00;15.60;;;15.60;99.90;;;;;;4934082;29;20454;-76
2023/06/17 02:36:48;;;;;;;18.67;17.27;;;15.50;99.90;;;;;;4934114;29;20458;-75
2023/06/17 02:39:14;;;;;;;16.87;15.90;;;15.50;99.90;;;;;;4934021;29;20955;-75
2023/06/17 02:41:41;;;;;;;18.07;16.97;;;15.50;99.90;;;;;;4934041;29;20453;-75
2023/06/17 02:44:08;;;;;;;17.43;16.13;;;15.50;99.90;;;;;;4933703;29;20461;-75
2023/06/17 02:46:35;;;;;;;17.47;16.30;;;15.50;99.90;;;;;;4933722;29;20797;-75
2023/06/17 02:49:03;;;;;;;17.73;16.30;;;15.50;99.90;;;;;;4933799;29;20461;-74
2023/06/17 02:51:30;;;;;;;17.40;16.30;;;15.40;99.90;;;;;;4933886;29;20497;-74
2023/06/17 02:53:57;;;;;;;19.07;17.50;;;15.40;99.90;;;;;;4933911;29;20486;-76
2023/06/17 02:56:23;;;;;;;17.30;16.20;;;15.40;99.90;;;;;;4933633;29;20461;-74
2023/06/17 02:58:50;;;;;;;18.07;16.87;;;15.30;99.90;;;;;;4933719;29;20457;-76
2023/06/17 03:01:18;;;;;;;18.60;17.50;;;15.30;99.90;;;;;;4933621;29;20571;-76
2023/06/17 03:03:44;;;;;;;17.97;16.77;;;15.30;99.90;;;;;;4933873;29;20587;-76
2023/06/17 03:06:13;;;;;;;17.03;15.87;;;15.20;99.90;;;;;;4933526;29;20502;-76
2023/06/17 03:08:41;;;;;;;16.40;15.50;;;15.20;99.90;;;;;;4933544;29;20457;-75
2023/06/17 03:11:08;;;;;;;18.30;17.00;;;15.10;99.90;;;;;;4933492;29;20975;-77
2023/06/17 03:13:35;;;;;;;17.60;16.43;;;15.00;99.90;;;;;;4933386;29;20457;-79
2023/06/17 03:16:02;;;;;;;18.40;17.10;;;15.00;99.90;;;;;;4931512;29;20520;-77
2023/06/17 03:18:29;;;;;;;17.37;16.27;;;15.00;99.90;;;;;;4933025;29;20544;-74
2023/06/17 03:20:56;;;;;;;18.50;17.27;;;15.00;99.90;;;;;;4933494;29;20457;-75
2023/06/17 03:23:24;;;;;;;19.27;17.73;;;15.00;99.90;;;;;;4933371;29;21003;-75
2023/06/17 03:25:52;;;;;;;19.87;18.37;;;14.90;99.90;;;;;;4933457;29;20453;-75
2023/06/17 03:28:20;;;;;;;19.77;18.47;;;14.90;99.90;;;;;;4933282;29;20635;-77
2023/06/17 03:30:46;;;;;;;18.53;17.43;;;15.00;99.90;;;;;;4933305;29;20562;-75
2023/06/17 03:33:14;;;;;;;18.67;17.50;;;15.00;99.90;;;;;;4933267;29;20544;-74
2023/06/17 03:35:41;;;;;;;19.73;18.30;;;15.00;99.90;;;;;;4933300;29;20454;-75
2023/06/17 03:38:08;;;;;;;17.57;16.37;;;15.00;99.90;;;;;;4933382;29;20449;-75
2023/06/17 03:40:37;;;;;;;19.03;17.73;;;14.90;99.90;;;;;;4933247;29;20465;-75
2023/06/17 03:43:03;;;;;;;19.80;18.10;;;14.90;99.90;;;;;;4927915;29;20462;-75
2023/06/17 03:45:30;;;;;;;18.90;17.50;;;14.90;99.90;;;;;;4915096;29;20458;-86
2023/06/17 03:47:57;;;;;;;18.83;17.60;;;14.90;99.90;;;;;;4917717;29;20458;-87
2023/06/17 03:50:24;;;;;;;19.53;18.23;;;14.80;99.90;;;;;;4916415;29;20455;-87
2023/06/17 03:52:51;;;;;;;18.40;17.27;;;14.90;99.90;;;;;;4915118;29;20493;-88
2023/06/17 03:55:17;;;;;;;20.03;18.43;;;14.90;99.90;;;;;;4915710;29;20458;-88
2023/06/17 03:57:45;;;;;;;18.60;17.43;;;14.90;99.90;;;;;;4914678;29;20541;-86
2023/06/17 04:00:13;;;;;;;20.20;18.70;;;14.90;99.90;;;;;;4914725;29;20458;-85
2023/06/17 04:02:41;;;;;;;17.97;16.77;;;15.00;99.90;;;;;;4914525;29;20494;-86
2023/06/17 04:05:09;;;;;;;18.10;17.00;;;14.90;99.90;;;;;;4915166;29;20975;-85
2023/06/17 04:07:38;;;;;;;18.13;16.90;;;15.00;99.90;;;;;;4914659;29;20653;-77
2023/06/17 04:10:06;;;;;;;18.13;16.90;;;14.90;99.90;;;;;;4914129;29;20489;-74
2023/06/17 04:12:33;;;;;;;19.10;17.67;;;14.90;99.90;;;;;;4913964;29;20501;-75
2023/06/17 04:15:01;;;;;;;19.83;18.37;;;15.00;99.90;;;;;;4914199;29;20453;-75
2023/06/17 04:17:28;;;;;;;17.73;16.43;;;15.00;99.90;;;;;;4914217;29;20466;-74
2023/06/17 04:19:57;;;;;;;18.73;17.00;;;15.00;99.90;;;;;;4914086;29;20498;-75
2023/06/17 04:22:23;;;;;;;17.40;16.00;;;15.00;99.90;;;;;;4914044;29;20819;-76
2023/06/17 04:24:55;;;;;;;16.73;15.50;;;15.10;99.90;;;;;;4913961;29;20968;-73
2023/06/17 04:27:22;;;;;;;19.43;17.93;;;15.30;99.90;;;;;;4914069;29;20818;-74
2023/06/17 04:29:49;;;;;;;17.70;16.70;;;15.40;99.90;;;;;;4914637;29;20450;-74
2023/06/17 04:32:17;;;;;;;17.60;16.30;;;15.40;99.90;;;;;;4917415;29;20512;-75
2023/06/17 04:34:47;;;;;;;17.83;16.43;;;15.50;99.90;;;;;;4917553;29;20493;-75
2023/06/17 04:37:14;;;;;;;17.57;16.37;;;15.60;99.90;;;;;;4917495;29;20465;-74
2023/06/17 04:39:42;;;;;;;18.10;16.90;;;15.60;99.90;;;;;;4917548;29;20458;-74
2023/06/17 04:42:09;;;;;;;17.87;16.67;;;15.70;99.90;;;;;;4917366;29;20558;-75
2023/06/17 04:44:37;;;;;;;18.60;17.20;;;15.80;99.90;;;;;;4917380;29;20545;-74
2023/06/17 04:47:04;;;;;;;17.73;16.50;;;15.90;99.90;;;;;;4917174;29;20601;-77
2023/06/17 04:49:38;;;;;;;16.63;15.53;;;15.90;99.90;;;;;;4917260;29;20911;-75
2023/06/17 04:52:05;;;;;;;16.93;15.60;;;16.10;99.90;;;;;;4917120;29;20497;-76
2023/06/17 04:54:34;;;;;;;17.10;15.70;;;16.00;99.90;;;;;;4917000;29;20498;-75
2023/06/17 04:57:00;;;;;;;17.87;16.67;;;16.10;99.90;;;;;;4917135;29;20474;-75
2023/06/17 04:59:27;;;;;;;17.53;16.33;;;16.20;99.90;;;;;;4917253;29;20493;-75
2023/06/17 05:01:54;;;;;;;18.67;17.47;;;16.10;99.90;;;;;;4916854;29;20459;-75
2023/06/17 05:04:20;;;;;;;18.30;16.80;;;16.10;99.90;;;;;;4916917;29;20447;-75
2023/06/17 05:06:49;;;;;;;17.73;16.43;;;16.20;99.90;;;;;;4916655;29;20490;-75
2023/06/17 05:09:15;;;;;;;18.30;17.00;;;16.20;99.90;;;;;;4916827;29;20455;-75
2023/06/17 05:11:42;;;;;;;19.43;17.70;;;16.60;99.90;;;;;;4916660;29;20945;-75
2023/06/17 05:14:09;;;;;;;17.40;16.30;;;17.00;99.90;;;;;;4916444;29;20997;-75
2023/06/17 05:16:36;;;;;;;16.27;15.20;;;16.90;99.90;;;;;;4916500;29;20458;-75
2023/06/17 05:19:03;;;;;;;17.40;16.00;;;17.00;99.90;;;;;;4916442;29;20458;-75
2023/06/17 05:21:29;;;;;;;16.70;15.53;;;17.50;99.90;;;;;;4916423;29;20461;-74
2023/06/17 05:23:57;;;;;;;17.77;16.27;;;17.90;99.90;;;;;;4915943;29;20976;-75
2023/06/17 05:26:24;;;;;;;16.33;15.23;;;17.90;99.90;;;;;;4915364;29;20833;-75
2023/06/17 05:28:51;;;;;;;16.80;15.70;;;17.60;99.90;;;;;;4915293;29;20454;-75
2023/06/17 05:31:18;;;;;;;16.17;14.97;;;17.70;99.90;;;;;;4915314;29;20489;-76
2023/06/17 05:33:45;;;;;;;18.30;16.70;;;18.40;99.90;;;;;;4915095;29;20619;-75
2023/06/17 05:36:11;;;;;;;15.77;14.77;;;18.90;99.90;;;;;;4915146;29;20529;-76
2023/06/17 05:38:38;;;;;;;16.47;15.30;;;19.20;99.90;;;;;;4915094;29;20525;-76
2023/06/17 05:41:06;;;;;;;23.00;17.77;;;19.10;99.90;;;;;;4914501;29;20481;-75
2023/06/17 05:43:33;;;;;;;17.10;15.80;;;18.60;99.90;;;;;;4914823;29;20518;-76
2023/06/17 05:46:00;;;;;;;16.70;15.50;;;18.40;99.90;;;;;;4914938;29;20454;-76
2023/06/17 05:48:26;;;;;;;15.77;14.57;;;18.30;99.90;;;;;;4914932;29;20537;-75
2023/06/17 05:50:53;;;;;;;17.27;16.27;;;18.50;99.90;;;;;;4914745;29;20952;-76
2023/06/17 05:53:20;;;;;;;17.37;16.27;;;18.50;99.90;;;;;;4914281;29;20502;-76
2023/06/17 05:55:46;;;;;;;16.97;15.87;;;18.60;99.90;;;;;;4914526;29;20510;-76
2023/06/17 05:58:15;;;;;;;17.67;16.57;;;19.00;99.90;;;;;;4914591;29;20466;-75
2023/06/17 06:00:41;;;;;;;17.70;16.50;;;19.10;99.90;;;;;;4914506;29;20459;-76
2023/06/17 06:03:08;;;;;;;15.83;14.83;;;19.20;99.90;;;;;;4914635;29;20482;-77
2023/06/17 06:05:35;;;;;;;17.00;15.90;;;19.40;99.80;;;;;;4914680;29;20450;-78
2023/06/17 06:08:01;;;;;;;16.53;15.40;;;19.70;98.70;;;;;;4914944;29;20810;-75
2023/06/17 06:10:28;;;;;;;17.73;16.63;;;20.00;98.40;;;;;;4914841;29;20454;-83
2023/06/17 06:12:55;;;;;;;17.07;16.07;;;20.20;98.00;;;;;;4914258;29;20995;-77
2023/06/17 06:15:23;;;;;;;18.07;16.87;;;20.50;97.40;;;;;;4914425;29;20896;-75
2023/06/17 06:17:50;;;;;;;16.10;15.10;;;20.90;96.60;;;;;;4914352;29;20481;-76
2023/06/17 06:20:17;;;;;;;15.97;15.00;;;20.90;96.20;;;;;;4914669;29;20459;-75
2023/06/17 06:22:46;;;;;;;16.77;15.37;;;20.90;95.90;;;;;;4914620;29;20466;-80
2023/06/17 06:25:13;;;;;;;16.23;15.23;;;20.90;96.20;;;;;;4911708;29;20565;-80
2023/06/17 06:27:40;;;;;;;15.97;14.97;;;21.20;95.00;;;;;;4913953;29;20969;-78
2023/06/17 06:30:08;;;;;;;17.20;15.90;;;21.10;95.00;;;;;;4914140;29;20506;-78
2023/06/17 06:32:36;;;;;;;16.20;15.20;;;21.30;94.70;;;;;;4914025;29;20518;-77
2023/06/17 06:35:03;;;;;;;16.90;15.90;;;21.70;94.10;;;;;;4914045;29;20451;-79
2023/06/17 06:37:30;;;;;;;16.67;15.47;;;21.80;93.50;;;;;;4914132;29;20522;-78
2023/06/17 06:39:56;;;;;;;18.50;17.20;;;22.30;92.70;;;;;;4913992;29;20485;-78
2023/06/17 06:42:23;;;;;;;16.47;15.00;;;22.80;91.90;;;;;;4913891;29;20466;-80
2023/06/17 06:44:50;;;;;;;17.27;16.13;;;23.30;90.40;;;;;;4913011;29;21224;-79
2023/06/17 06:47:16;;;;;;;17.07;16.13;;;23.30;90.10;;;;;;4911271;29;20518;-79
2023/06/17 06:49:44;;;;;;;15.77;14.80;;;23.30;90.00;;;;;;4914077;29;20886;-82
2023/06/17 06:52:11;;;;;;;16.77;15.57;;;23.30;89.70;;;;;;4914059;29;20482;-82
2023/06/17 06:54:38;;;;;;;16.63;15.67;;;23.60;88.90;;;;;;4913831;29;20478;-82
2023/06/17 06:57:05;;;;;;;16.97;15.67;;;24.00;87.00;;;;;;4913682;29;20506;-81
2023/06/17 06:59:32;;;;;;;18.03;16.63;;;23.70;86.30;;;;;;4914058;29;20514;-82
2023/06/17 07:01:59;;;;;;;17.10;15.90;;;23.20;88.30;;;;;;4913970;29;20457;-83
2023/06/17 07:04:25;;;;;;;17.00;16.03;;;23.00;89.80;;;;;;4913956;29;20453;-84
2023/06/17 07:06:53;;;;;;;16.30;15.30;;;23.10;88.40;;;;;;4913821;29;20514;-82
2023/06/17 07:09:20;;;;;;;19.13;17.63;;;23.40;87.70;;;;;;4913975;29;20501;-81
2023/06/17 07:11:47;;;;;;;16.90;15.87;;;23.70;86.50;;;;;;4913695;29;20541;-80
2023/06/17 07:14:14;;;;;;;17.63;16.43;;;24.30;84.60;;;;;;4913684;29;20549;-81
2023/06/17 07:16:40;;;;;;;17.57;16.30;;;24.50;82.80;;;;;;4913682;29;20482;-81
2023/06/17 07:19:07;;;;;;;16.87;15.87;;;24.90;82.30;;;;;;4913545;29;20458;-80
2023/06/17 07:21:34;;;;;;;17.17;16.20;;;25.20;80.80;;;;;;4913516;29;20521;-79
2023/06/17 07:24:02;;;;;;;17.77;16.47;;;25.00;80.10;;;;;;4913826;29;20532;-82
2023/06/17 07:26:28;;;;;;;17.13;16.17;;;25.50;78.60;;;;;;4913513;29;20957;-82
2023/06/17 07:28:55;;;;;;;17.40;16.10;;;26.00;77.20;;;;;;4913713;29;21012;-82
2023/06/17 07:31:23;;;;;;;17.97;16.50;;;25.90;76.80;;;;;;4913557;29;20467;-81
2023/06/17 07:33:50;;;;;;;16.97;15.97;;;26.30;75.50;;;;;;4913619;29;20627;-81
2023/06/17 07:36:16;;;;;;;17.33;16.40;;;26.70;74.00;;;;;;4913666;29;20462;-81
2023/06/17 07:38:43;;;;;;;16.20;15.30;;;27.00;73.20;;;;;;4913563;29;20457;-80
2023/06/17 07:41:11;;;;;;;17.53;16.10;;;27.50;71.60;;;;;;4913234;29;20470;-81
2023/06/17 07:43:37;;;;;;;17.77;16.77;;;28.00;68.60;;;;;;4913272;29;20458;-80
2023/06/17 07:46:04;;;;;;;18.07;17.10;;;28.70;67.70;;;;;;4913303;29;20533;-81
2023/06/17 07:48:31;;;;;;;18.30;17.40;;;29.20;65.10;;;;;;4913231;29;20480;-81
2023/06/17 07:50:58;;;;;;;18.70;17.60;;;29.00;64.20;;;;;;4913532;29;20481;-81
2023/06/17 07:53:25;;;;;;;17.73;16.53;;;28.30;65.40;;;;;;4912638;29;20589;-82
2023/06/17 07:55:53;;;;;;;18.40;17.40;;;28.60;65.10;;;;;;4912926;29;20458;-81
2023/06/17 07:58:21;;;;;;;18.40;17.40;;;29.70;62.50;;;;;;4913355;29;20576;-81
2023/06/17 08:00:48;;;;;;;17.50;16.60;;;30.40;60.50;;;;;;4912903;29;20459;-82
2023/06/17 08:03:15;;;;;;;17.90;16.70;;;31.00;58.00;;;;;;4913095;29;20901;-81
2023/06/17 08:05:42;;;;;;;17.70;16.70;;;30.90;57.70;;;;;;4915450;29;20450;-81
2023/06/17 08:08:08;;;;;;;17.47;16.67;;;31.50;56.00;;;;;;4916746;29;20454;-81
2023/06/17 08:10:36;;;;;;;19.53;17.83;;;32.20;55.00;;;;;;4916883;29;20462;-80
2023/06/17 08:13:02;;;;;;;17.73;16.73;;;32.70;54.00;;;;;;4916391;29;20490;-80
2023/06/17 08:15:30;;;;;;;18.43;17.13;;;33.00;53.90;;;;;;4916892;29;20455;-80
2023/06/17 08:17:57;;;;;;;18.33;17.43;;;33.50;52.00;;;;;;4916738;29;20497;-80
2023/06/17 08:20:24;;;;;;;18.63;17.70;;;33.80;50.90;;;;;;4916446;29;20454;-80
2023/06/17 08:22:50;;;;;;;20.27;19.27;;;34.00;50.00;;;;;;4916473;29;20858;-79
2023/06/17 08:25:17;;;;;;;18.10;17.20;;;34.30;49.10;;;;;;4916512;29;20517;-79
2023/06/17 08:27:47;;;;;;;19.00;18.00;;;33.80;49.30;;;;;;4916763;29;20473;-80
2023/06/17 08:30:14;;;;;;;17.87;17.07;;;34.20;49.30;;;;;;4916733;29;20561;-80
2023/06/17 08:32:42;;;;;;;20.37;18.67;;;34.70;48.20;;;;;;4916350;29;20461;-80
2023/06/17 08:35:09;;;;;;;19.00;18.03;;;35.50;45.90;;;;;;4916455;29;20462;-80
2023/06/17 08:37:36;;;;;;;18.60;17.73;;;35.40;45.30;;;;;;4916200;29;20541;-79
2023/06/17 08:40:04;;;;;;;16.57;15.77;;;35.50;44.60;;;;;;4916164;29;20514;-80
2023/06/17 08:42:32;;;;;;;19.03;18.13;;;35.50;43.30;;;;;;4915805;29;20465;-79
2023/06/17 08:45:00;;;;;;;19.23;18.33;;;35.60;43.20;;;;;;4916129;29;20450;-79
2023/06/17 08:47:27;;;;;;;17.73;16.87;;;35.70;41.30;;;;;;4916132;29;20829;-79
2023/06/17 08:49:57;;;;;;;18.00;16.77;;;35.70;41.70;;;;;;4915767;29;20458;-80
2023/06/17 08:52:24;;;;;;;17.67;16.87;;;36.30;40.60;;;;;;4915788;29;20481;-80
2023/06/17 08:54:54;;;;;;;18.40;17.30;;;36.80;39.10;;;;;;4915436;29;20964;-80
2023/06/17 08:57:21;;;;;;;18.57;17.57;;;36.90;37.80;;;;;;4915632;29;20454;-80
2023/06/17 08:59:47;;;;;;;18.20;17.27;;;36.10;38.30;;;;;;4915621;29;20938;-80
2023/06/17 09:02:15;;;;;;;17.33;16.40;;;35.80;37.10;;;;;;4915712;29;20773;-80
2023/06/17 09:04:42;;;;;;;17.37;16.53;;;35.60;37.00;;;;;;4915679;29;20454;-81
2023/06/17 09:07:11;;;;;;;16.60;15.70;;;36.00;36.60;;;;;;4915268;29;20517;-79
2023/06/17 09:09:38;;;;;;;17.73;16.93;;;36.60;36.50;;;;;;4915313;29;20466;-79
2023/06/17 09:12:06;;;;;;;18.23;17.13;;;36.90;35.90;;;;;;4915489;29;20454;-79
2023/06/17 09:14:34;;;;;;;18.00;17.20;;;37.00;35.90;;;;;;4915163;29;20490;-79
2023/06/17 09:17:01;;;;;;;18.10;17.30;;;36.10;36.80;;;;;;4914619;29;20466;-79
2023/06/17 09:19:31;;;;;;;17.37;16.47;;;36.80;36.30;;;;;;4915706;29;20533;-79
2023/06/17 09:22:04;;;;;;;17.67;16.67;;;36.70;35.40;;;;;;4915680;29;20541;-78
2023/06/17 09:24:32;;;;;;;18.00;17.10;;;36.00;35.90;;;;;;4915512;29;20458;-79
2023/06/17 09:26:59;;;;;;;18.17;17.17;;;36.30;35.70;;;;;;4915890;29;20963;-79
2023/06/17 09:29:29;;;;;;;18.03;17.07;;;37.40;35.10;;;;;;4915726;29;20458;-79
2023/06/17 09:31:57;;;;;;;18.20;17.30;;;38.10;33.80;;;;;;4915550;29;20557;-79
2023/06/17 09:34:26;;;;;;;17.27;16.47;;;38.70;32.40;;;;;;4915023;29;20493;-78
2023/06/17 09:37:00;;;;;;;16.77;15.97;;;38.40;31.20;;;;;;4914932;29;20467;-77
2023/06/17 09:39:32;;;;;;;18.23;17.40;;;37.10;31.60;;;;;;4915336;29;20458;-78
2023/06/17 09:42:07;;;;;;;17.43;16.53;;;36.70;32.30;;;;;;4915655;29;20469;-77
2023/06/17 09:44:35;;;;;;;18.40;17.60;;;36.00;32.40;;;;;;4915364;29;20524;-78
2023/06/17 09:47:06;;;;;;;17.77;16.80;;;35.50;33.00;;;;;;4915276;29;20981;-78
2023/06/17 09:49:35;;;;;;;17.00;16.07;;;34.50;34.70;;;;;;4914945;29;20771;-78
2023/06/17 09:52:05;;;;;;;17.47;16.40;;;34.70;34.50;;;;;;4914924;29;20581;-78
2023/06/17 09:54:34;;;;;;;15.30;14.40;;;35.20;34.00;;;;;;4914361;29;20506;-79
2023/06/17 09:57:02;;;;;;;17.10;16.20;;;35.00;34.70;;;;;;4915222;29;20545;-79
2023/06/17 09:59:30;;;;;;;16.53;15.10;;;34.40;35.80;;;;;;4915589;29;20549;-77
2023/06/17 10:01:57;;;;;;;16.10;15.43;;;33.20;36.30;;;;;;4915521;29;20463;-78
2023/06/17 10:04:23;;;;;;;16.10;15.30;;;33.80;35.20;;;;;;4915279;29;20469;-78
2023/06/17 10:06:52;;;;;;;16.60;15.90;;;33.60;34.30;;;;;;4915344;29;20486;-77
2023/06/17 10:09:19;;;;;;;16.50;15.70;;;33.40;34.70;;;;;;4915069;29;21142;-77
2023/06/17 10:11:51;;;;;;;16.50;15.70;;;33.80;34.30;;;;;;4915055;29;20454;-77
2023/06/17 10:14:23;;;;;;;16.00;15.30;;;34.60;33.40;;;;;;4914907;29;20493;-77
2023/06/17 10:16:51;;;;;;;17.50;16.60;;;34.60;33.60;;;;;;4914964;29;20864;-78
2023/06/17 10:19:23;;;;;;;16.10;15.30;;;34.30;33.80;;;;;;4915097;29;20454;-77
2023/06/17 10:21:53;;;;;;;18.37;17.47;;;34.20;34.00;;;;;;4915239;29;20529;-77
2023/06/17 10:24:20;;;;;;;16.10;15.27;;;34.00;34.20;;;;;;4915184;29;20879;-77
2023/06/17 10:26:52;;;;;;;19.33;17.60;;;34.10;33.90;;;;;;4914958;29;20462;-77
2023/06/17 10:29:18;;;;;;;17.00;16.10;;;34.80;32.60;;;;;;4914385;29;20466;-78
2023/06/17 10:31:45;;;;;;;16.60;15.90;;;34.70;32.20;;;;;;4914283;29;20462;-77
2023/06/17 10:34:16;;;;;;;15.00;14.30;;;34.10;32.20;;;;;;4914196;29;20494;-77
2023/06/17 10:36:48;;;;;;;16.07;15.37;;;33.20;33.60;;;;;;4914481;29;20454;-76
2023/06/17 10:39:14;;;;;;;16.93;15.70;;;33.00;34.10;;;;;;4914169;29;20470;-77
2023/06/17 10:41:57;;;;;;;16.43;15.40;;;34.00;33.40;;;;;;4914271;29;20447;-77
2023/06/17 10:44:43;;;;;;;16.73;15.87;;;35.20;32.20;;;;;;4914298;29;20455;-76
2023/06/17 10:47:19;;;;;;;16.67;15.97;;;35.10;31.30;;;;;;4914306;29;20457;-77
2023/06/17 10:49:47;;;;;;;16.27;15.37;;;35.50;31.30;;;;;;4913998;29;20450;-76
2023/06/17 10:52:15;;;;;;;16.53;15.83;;;35.50;31.00;;;;;;4914097;29;20569;-77
2023/06/17 10:54:46;;;;;;;16.93;16.13;;;35.30;31.70;;;;;;4914107;29;20490;-77
2023/06/17 10:57:14;;;;;;;17.20;16.40;;;35.50;31.50;;;;;;4914048;29;20534;-77
2023/06/17 10:59:41;;;;;;;16.87;15.97;;;36.00;31.60;;;;;;4914017;29;20533;-77
2023/06/17 11:02:09;;;;;;;17.43;16.50;;;35.50;31.10;;;;;;4913912;29;20500;-77
2023/06/17 11:04:36;;;;;;;17.00;16.20;;;35.80;31.00;;;;;;4914038;29;20465;-77
2023/06/17 11:07:05;;;;;;;17.27;16.30;;;36.10;30.80;;;;;;4913945;29;20462;-77
2023/06/17 11:09:34;;;;;;;17.20;16.40;;;36.90;30.20;;;;;;4913967;29;20533;-76
2023/06/17 11:12:03;;;;;;;17.63;16.60;;;36.70;30.10;;;;;;4913864;29;20450;-76
2023/06/17 11:14:33;;;;;;;16.90;16.20;;;36.60;29.60;;;;;;4913636;29;20512;-76
2023/06/17 11:16:59;;;;;;;16.73;15.80;;;36.10;30.00;;;;;;4913592;29;20945;-76
2023/06/17 11:19:26;;;;;;;17.20;16.40;;;37.00;30.00;;;;;;4913936;29;20446;-76
2023/06/17 11:22:02;;;;;;;17.57;16.77;;;37.70;29.50;;;;;;4913638;29;20559;-75
2023/06/17 11:24:29;;;;;;;17.30;16.40;;;38.20;28.50;;;;;;4913625;29;20458;-76
2023/06/17 11:26:55;;;;;;;16.87;16.10;;;37.70;29.00;;;;;;4913345;29;20478;-76
2023/06/17 11:29:22;;;;;;;16.57;15.70;;;38.80;28.00;;;;;;4913556;29;20510;-77
2023/06/17 11:31:51;;;;;;;16.90;16.10;;;38.90;28.00;;;;;;4913599;29;20505;-75
2023/06/17 11:34:18;;;;;;;18.50;17.70;;;38.00;27.80;;;;;;4913302;29;20486;-76
2023/06/17 11:36:44;;;;;;;17.90;16.80;;;38.30;28.60;;;;;;4913596;29;20516;-76
2023/06/17 11:39:12;;;;;;;17.97;16.90;;;37.90;28.50;;;;;;4912958;29;20723;-76
2023/06/17 11:41:39;;;;;;;16.03;15.43;;;37.10;29.00;;;;;;4913270;29;20468;-76
2023/06/17 11:44:06;;;;;;;17.87;16.97;;;37.30;29.40;;;;;;4913272;29;20458;-77
2023/06/17 11:46:37;;;;;;;17.60;16.70;;;37.90;29.10;;;;;;4913115;29;20931;-76
2023/06/17 11:49:07;;;;;;;17.53;16.83;;;39.20;28.20;;;;;;4913210;29;20461;-76
2023/06/17 11:51:35;;;;;;;18.40;17.60;;;38.90;28.50;;;;;;4913308;29;20513;-76
2023/06/17 11:54:05;;;;;;;18.43;17.53;;;38.90;28.60;;;;;;4912897;29;20489;-77
2023/06/17 11:56:33;;;;;;;18.53;17.60;;;38.80;29.10;;;;;;4913924;29;20506;-77
2023/06/17 11:59:01;;;;;;;19.23;18.17;;;38.50;28.80;;;;;;4914317;29;20542;-78
2023/06/17 12:01:27;;;;;;;19.53;18.53;;;37.60;28.90;;;;;;4914415;29;20458;-76
2023/06/17 12:03:56;;;;;;;17.20;16.43;;;37.90;28.80;;;;;;4914311;29;20466;-76
2023/06/17 12:06:27;;;;;;;17.30;16.57;;;36.60;28.70;;;;;;4914200;29;20465;-76
2023/06/17 12:08:57;;;;;;;17.00;16.20;;;36.00;29.00;;;;;;4914365;29;20480;-77
2023/06/17 12:11:28;;;;;;;15.97;15.00;;;34.50;29.90;;;;;;4914019;29;20545;-76
2023/06/17 12:13:55;;;;;;;16.70;15.80;;;33.80;31.10;;;;;;4914182;29;20450;-76
2023/06/17 12:16:25;;;;;;;16.70;16.00;;;32.90;31.40;;;;;;4914277;29;20454;-77
2023/06/17 12:18:52;;;;;;;16.23;15.43;;;33.10;33.40;;;;;;4914372;29;20446;-78
2023/06/17 12:21:20;;;;;;;15.33;14.63;;;34.30;30.80;;;;;;4914116;29;20549;-76
2023/06/17 12:23:50;;;;;;;16.80;16.00;;;34.10;30.00;;;;;;4914197;29;20545;-78
2023/06/17 12:26:17;;;;;;;17.30;16.60;;;34.70;30.70;;;;;;4914100;29;20881;-77
2023/06/17 12:28:45;;;;;;;15.53;14.93;;;36.00;29.50;;;;;;4914332;29;20561;-77
2023/06/17 12:31:11;;;;;;;15.73;15.03;;;36.20;28.60;;;;;;4914105;29;20466;-76